Time;durP1;ratioP1;P1;durP2;ratioP2;P2;SDS_P1;SDS_P2;PMS_P1;PMS_P2;Temp;Humidity;BMP_temperature;BMP_pressure;BME280_temperature;BME280_humidity;BME280_pressure;Samples;Min_cycle;Max_cycle;Signal;HPM_P1;HPM_P2
2022/10/14 00:01:16;;;;;;;2.33;2.03;;;11.80;99.90;;;;;;6270068;22;20420;-78
2022/10/14 00:03:43;;;;;;;2.00;1.80;;;11.80;99.90;;;;;;6272286;22;20915;-78
2022/10/14 00:06:13;;;;;;;1.60;1.50;;;11.80;99.90;;;;;;6271748;22;20392;-78
2022/10/14 00:08:41;;;;;;;1.85;1.75;;;11.80;99.90;;;;;;6273303;22;20426;-78
2022/10/14 00:11:10;;;;;;;2.60;2.17;;;11.80;99.90;;;;;;6281859;22;20388;-78
2022/10/14 00:13:38;;;;;;;2.30;2.10;;;11.80;99.90;;;;;;6281308;22;20693;-78
2022/10/14 00:16:13;;;;;;;3.78;2.13;;;11.80;99.90;;;;;;6271762;22;20438;-78
2022/10/14 00:18:39;;;;;;;3.55;2.33;;;11.80;99.90;;;;;;6281316;22;20867;-78
2022/10/14 00:21:06;;;;;;;4.60;2.53;;;11.80;99.90;;;;;;6271403;22;20388;-78
2022/10/14 00:23:32;;;;;;;3.33;2.05;;;11.80;99.90;;;;;;6282266;22;20399;-78
2022/10/14 00:25:59;;;;;;;2.53;1.60;;;11.80;99.90;;;;;;6281722;22;20391;-78
2022/10/14 00:28:26;;;;;;;2.38;2.17;;;11.80;99.90;;;;;;6281554;22;20388;-79
2022/10/14 00:30:58;;;;;;;1.90;1.80;;;11.80;99.90;;;;;;6271742;22;20384;-78
2022/10/14 00:33:26;;;;;;;2.42;2.22;;;11.80;99.90;;;;;;6270686;22;20395;-79
2022/10/14 00:35:58;;;;;;;3.70;2.20;;;11.80;99.90;;;;;;6281682;22;20391;-79
2022/10/14 00:38:25;;;;;;;2.80;2.60;;;11.80;99.90;;;;;;6271052;22;20391;-79
2022/10/14 00:40:53;;;;;;;2.42;2.33;;;11.80;99.90;;;;;;6271421;22;20446;-79
2022/10/14 00:43:22;;;;;;;2.65;1.45;;;11.80;99.90;;;;;;6282407;22;20388;-79
2022/10/14 00:45:49;;;;;;;2.08;1.88;;;11.80;99.90;;;;;;6278342;22;20382;-79
2022/10/14 00:48:18;;;;;;;2.00;1.80;;;11.80;99.90;;;;;;6280878;22;20434;-79
2022/10/14 00:50:47;;;;;;;1.40;1.30;;;11.80;99.90;;;;;;6272690;22;20411;-79
2022/10/14 00:53:15;;;;;;;1.90;1.80;;;11.80;99.90;;;;;;6270945;22;20426;-79
2022/10/14 00:55:42;;;;;;;1.92;1.83;;;11.80;99.90;;;;;;6272868;22;20445;-79
2022/10/14 00:58:10;;;;;;;1.70;1.60;;;11.80;99.90;;;;;;6282533;22;20774;-79
2022/10/14 01:00:36;;;;;;;2.22;2.00;;;11.80;99.90;;;;;;6283186;22;20406;-79
2022/10/14 01:03:18;;;;;;;3.83;1.38;;;11.80;99.90;;;;;;6282393;22;20953;-79
2022/10/14 01:06:02;;;;;;;1.83;1.73;;;11.80;99.90;;;;;;6272420;22;20925;-78
2022/10/14 01:09:02;;;;;;;2.13;1.98;;;11.80;99.90;;;;;;6271100;22;20392;-78
2022/10/14 01:12:00;;;;;;;1.83;1.73;;;11.80;99.90;;;;;;6280596;22;20388;-79
2022/10/14 01:14:49;;;;;;;2.50;2.30;;;11.90;99.90;;;;;;6270056;22;20442;-78
2022/10/14 01:17:31;;;;;;;1.73;1.60;;;11.90;99.90;;;;;;6271124;22;20435;-78
2022/10/14 01:20:10;;;;;;;2.40;2.20;;;11.90;99.90;;;;;;6281451;22;20490;-77
2022/10/14 01:22:46;;;;;;;1.85;1.73;;;11.90;99.90;;;;;;6270468;22;20395;-78
2022/10/14 01:25:33;;;;;;;3.47;1.90;;;11.90;99.90;;;;;;6272120;22;20384;-79
2022/10/14 01:28:12;;;;;;;2.22;2.08;;;11.90;99.90;;;;;;6270546;22;20384;-78
2022/10/14 01:30:54;;;;;;;2.00;1.90;;;11.90;99.90;;;;;;6272502;22;20398;-78
2022/10/14 01:33:27;;;;;;;2.47;2.28;;;12.00;99.90;;;;;;6271159;22;20392;-78
2022/10/14 01:36:09;;;;;;;2.00;1.80;;;12.00;99.90;;;;;;6270811;22;20400;-78
2022/10/14 01:38:45;;;;;;;2.08;1.90;;;12.00;99.90;;;;;;6281978;22;20893;-78
2022/10/14 01:41:21;;;;;;;2.20;2.00;;;12.00;99.90;;;;;;6270537;22;20395;-78
2022/10/14 01:43:50;;;;;;;2.50;2.30;;;12.00;99.90;;;;;;6280277;22;20401;-78
2022/10/14 01:46:20;;;;;;;2.25;2.03;;;12.00;99.90;;;;;;6282066;22;20859;-79
2022/10/14 01:48:53;;;;;;;2.00;1.90;;;12.00;99.90;;;;;;6271712;22;20919;-78
2022/10/14 01:51:26;;;;;;;2.20;2.00;;;12.00;99.90;;;;;;6270642;22;20384;-78
2022/10/14 01:54:05;;;;;;;2.65;2.25;;;12.00;99.90;;;;;;6280571;22;20445;-78
2022/10/14 01:56:34;;;;;;;1.90;1.80;;;12.00;99.90;;;;;;6270544;22;20392;-78
2022/10/14 01:59:09;;;;;;;2.45;2.25;;;12.00;99.90;;;;;;6280995;22;20705;-79
2022/10/14 02:01:35;;;;;;;2.58;2.35;;;12.00;99.90;;;;;;6270192;22;20395;-79
2022/10/14 02:04:16;;;;;;;2.55;2.13;;;12.00;99.90;;;;;;6271148;22;20399;-79
2022/10/14 02:06:51;;;;;;;2.47;2.28;;;12.00;99.90;;;;;;6270314;22;20392;-78
2022/10/14 02:09:33;;;;;;;2.05;1.92;;;12.00;99.90;;;;;;6280537;22;20388;-78
2022/10/14 02:12:17;;;;;;;1.73;1.63;;;12.00;99.90;;;;;;6269890;22;20441;-78
2022/10/14 02:15:01;;;;;;;2.08;1.98;;;12.00;99.90;;;;;;6279022;22;20430;-79
2022/10/14 02:18:11;;;;;;;2.55;2.33;;;12.00;99.90;;;;;;6270310;22;20384;-79
2022/10/14 02:21:05;;;;;;;2.30;2.13;;;12.00;99.90;;;;;;6269693;22;20384;-78
2022/10/14 02:23:38;;;;;;;2.22;1.75;;;12.00;99.90;;;;;;6280338;22;20837;-78
2022/10/14 02:26:05;;;;;;;2.65;2.45;;;12.00;99.90;;;;;;6281646;22;20376;-78
2022/10/14 02:28:33;;;;;;;2.38;2.15;;;12.00;99.90;;;;;;6281181;22;20882;-78
2022/10/14 02:31:06;;;;;;;1.80;1.70;;;12.00;99.90;;;;;;6269717;22;20391;-78
2022/10/14 02:33:42;;;;;;;1.97;1.87;;;12.00;99.90;;;;;;6269494;22;20392;-79
2022/10/14 02:36:16;;;;;;;2.65;2.25;;;11.90;99.90;;;;;;6280526;22;20392;-79
2022/10/14 02:38:47;;;;;;;1.73;1.63;;;12.00;99.90;;;;;;6270184;22;20395;-79
2022/10/14 02:41:18;;;;;;;1.67;1.58;;;12.00;99.90;;;;;;6280129;22;20395;-79
2022/10/14 02:43:45;;;;;;;3.83;2.10;;;12.00;99.90;;;;;;6279022;22;20432;-79
2022/10/14 02:46:12;;;;;;;2.15;1.95;;;11.90;99.90;;;;;;6269817;22;20432;-79
2022/10/14 02:48:39;;;;;;;1.90;1.80;;;12.00;99.90;;;;;;6271074;22;20392;-79
2022/10/14 02:51:06;;;;;;;2.15;1.60;;;12.00;99.90;;;;;;6270080;22;20383;-77
2022/10/14 02:53:32;;;;;;;2.17;1.98;;;12.00;99.90;;;;;;6281532;22;20430;-79
2022/10/14 02:56:00;;;;;;;1.90;1.77;;;12.00;99.90;;;;;;6280054;22;20410;-78
2022/10/14 02:58:32;;;;;;;2.63;2.42;;;12.00;99.90;;;;;;6287263;22;20735;-79
2022/10/14 03:00:59;;;;;;;1.70;1.60;;;12.00;99.90;;;;;;6271095;22;20388;-79
2022/10/14 03:03:25;;;;;;;7.60;2.08;;;12.00;99.90;;;;;;6268909;22;20392;-79
2022/10/14 03:05:52;;;;;;;1.67;1.58;;;12.00;99.90;;;;;;6270866;22;20388;-79
2022/10/14 03:08:22;;;;;;;1.73;1.63;;;12.00;99.90;;;;;;6269359;22;20388;-79
2022/10/14 03:10:48;;;;;;;1.95;1.85;;;12.00;99.90;;;;;;6269945;22;20396;-78
2022/10/14 03:13:15;;;;;;;2.20;2.10;;;12.00;99.90;;;;;;6269322;22;20392;-79
2022/10/14 03:15:42;;;;;;;2.55;2.35;;;12.00;99.90;;;;;;6269719;22;20399;-79
2022/10/14 03:18:09;;;;;;;1.90;1.80;;;12.00;99.90;;;;;;6280303;22;21001;-76
2022/10/14 03:20:38;;;;;;;2.90;1.83;;;12.00;99.90;;;;;;6269997;22;20775;-79
2022/10/14 03:23:05;;;;;;;2.10;2.00;;;12.00;99.90;;;;;;6279226;22;20400;-79
2022/10/14 03:25:35;;;;;;;1.90;1.80;;;12.00;99.90;;;;;;6268608;22;20460;-79
2022/10/14 03:28:02;;;;;;;2.00;1.88;;;12.00;99.90;;;;;;6269010;22;20966;-79
2022/10/14 03:30:29;;;;;;;1.73;1.63;;;12.10;99.90;;;;;;6278998;22;20763;-79
2022/10/14 03:32:55;;;;;;;2.10;2.00;;;12.10;99.90;;;;;;6269247;22;20395;-79
2022/10/14 03:35:22;;;;;;;1.83;1.73;;;12.10;99.90;;;;;;6280797;22;20395;-79
2022/10/14 03:37:51;;;;;;;2.22;1.95;;;12.10;99.90;;;;;;6281907;22;20384;-79
2022/10/14 03:40:18;;;;;;;2.10;1.88;;;12.10;99.90;;;;;;6271429;22;20437;-79
2022/10/14 03:42:45;;;;;;;2.37;2.17;;;12.10;99.90;;;;;;6281147;22;20384;-79
2022/10/14 03:45:11;;;;;;;1.70;1.60;;;12.10;99.90;;;;;;6270924;22;20668;-78
2022/10/14 03:47:38;;;;;;;3.85;2.22;;;12.10;99.90;;;;;;6271459;22;20388;-79
2022/10/14 03:50:12;;;;;;;2.20;1.52;;;12.10;99.90;;;;;;6271325;22;20395;-79
2022/10/14 03:52:39;;;;;;;3.17;1.80;;;12.20;99.90;;;;;;6270981;22;20387;-79
2022/10/14 03:55:12;;;;;;;1.77;1.67;;;12.20;99.90;;;;;;6270977;22;20387;-79
2022/10/14 03:57:38;;;;;;;1.77;1.67;;;12.10;99.90;;;;;;6281551;22;20734;-79
2022/10/14 04:00:06;;;;;;;2.30;1.88;;;12.10;99.90;;;;;;6281240;22;20925;-79
2022/10/14 04:02:33;;;;;;;2.08;1.90;;;12.10;99.90;;;;;;6281746;22;20459;-78
2022/10/14 04:05:03;;;;;;;2.10;1.90;;;12.10;99.90;;;;;;6270683;22;20392;-79
2022/10/14 04:07:29;;;;;;;2.33;2.13;;;12.10;99.90;;;;;;6271173;22;20459;-79
2022/10/14 04:09:59;;;;;;;2.08;1.90;;;12.10;99.90;;;;;;6282804;22;20501;-79
2022/10/14 04:12:25;;;;;;;2.05;1.88;;;12.10;99.90;;;;;;6283082;22;20391;-79
2022/10/14 04:14:56;;;;;;;1.67;1.58;;;12.00;99.90;;;;;;6270396;22;20391;-78
2022/10/14 04:17:26;;;;;;;2.13;1.98;;;12.10;99.90;;;;;;6272562;22;20391;-78
2022/10/14 04:19:52;;;;;;;1.80;1.70;;;12.00;99.90;;;;;;6271004;22;20441;-79
2022/10/14 04:22:21;;;;;;;1.58;1.48;;;12.10;99.90;;;;;;6272208;22;20395;-79
2022/10/14 04:24:49;;;;;;;2.20;1.80;;;12.10;99.90;;;;;;6280255;22;20780;-78
2022/10/14 04:27:16;;;;;;;2.25;2.05;;;12.10;99.90;;;;;;6272691;22;20395;-79
2022/10/14 04:29:43;;;;;;;2.27;1.60;;;12.00;99.90;;;;;;6280873;22;20388;-79
2022/10/14 04:32:10;;;;;;;4.00;2.20;;;12.00;99.90;;;;;;6281640;22;20704;-79
2022/10/14 04:34:39;;;;;;;1.63;1.52;;;12.00;99.90;;;;;;6282238;22;20388;-78
2022/10/14 04:37:07;;;;;;;2.67;1.67;;;12.10;99.90;;;;;;6280745;22;20388;-79
2022/10/14 04:39:34;;;;;;;1.70;1.60;;;12.10;99.90;;;;;;6270671;22;20941;-78
2022/10/14 04:42:01;;;;;;;1.83;1.73;;;12.10;99.90;;;;;;6281111;22;20408;-79
2022/10/14 04:44:30;;;;;;;2.05;1.85;;;12.10;99.90;;;;;;6280332;22;20840;-79
2022/10/14 04:46:57;;;;;;;2.20;2.03;;;12.10;99.90;;;;;;6280417;22;20388;-79
2022/10/14 04:49:24;;;;;;;1.50;1.40;;;12.10;99.90;;;;;;6270940;22;20384;-79
2022/10/14 04:51:52;;;;;;;1.70;1.60;;;12.10;99.90;;;;;;6271761;22;20758;-79
2022/10/14 04:54:19;;;;;;;2.13;1.42;;;12.00;99.90;;;;;;6271487;22;20394;-76
2022/10/14 04:56:48;;;;;;;3.05;1.70;;;12.00;99.90;;;;;;6272125;22;20387;-77
2022/10/14 04:59:15;;;;;;;1.67;1.58;;;12.00;99.90;;;;;;6270335;22;20387;-77
2022/10/14 05:01:42;;;;;;;1.60;1.50;;;12.00;99.90;;;;;;6280971;22;20388;-78
2022/10/14 05:04:09;;;;;;;1.93;1.83;;;12.00;99.90;;;;;;6281800;22;20422;-77
2022/10/14 05:06:38;;;;;;;2.58;2.10;;;12.10;99.90;;;;;;6272114;22;20384;-77
2022/10/14 05:09:05;;;;;;;1.70;1.60;;;12.00;99.90;;;;;;6282476;22;20380;-77
2022/10/14 05:11:37;;;;;;;2.38;1.77;;;12.00;99.90;;;;;;6280957;22;20410;-77
2022/10/14 05:14:03;;;;;;;1.67;1.57;;;12.00;99.90;;;;;;6280162;22;20379;-77
2022/10/14 05:16:30;;;;;;;2.20;1.80;;;12.00;99.90;;;;;;6270275;22;20392;-78
2022/10/14 05:18:57;;;;;;;2.03;1.93;;;12.00;99.90;;;;;;6270535;22;20392;-78
2022/10/14 05:21:23;;;;;;;3.80;1.77;;;12.00;99.90;;;;;;6271893;22;20399;-77
2022/10/14 05:23:50;;;;;;;1.83;1.70;;;12.00;99.90;;;;;;6280158;22;20422;-77
2022/10/14 05:26:17;;;;;;;2.07;1.80;;;12.00;99.90;;;;;;6280240;22;20851;-78
2022/10/14 05:28:46;;;;;;;1.55;1.45;;;12.00;99.90;;;;;;6271810;22;20457;-77
2022/10/14 05:31:13;;;;;;;1.70;1.60;;;12.00;99.90;;;;;;6271748;22;20390;-77
2022/10/14 05:33:40;;;;;;;2.15;2.03;;;11.90;99.90;;;;;;6281677;22;20403;-78
2022/10/14 05:36:07;;;;;;;2.40;1.87;;;12.00;99.90;;;;;;6282024;22;20388;-78
2022/10/14 05:38:36;;;;;;;3.20;2.03;;;11.90;99.90;;;;;;6272039;22;20384;-78
2022/10/14 05:41:05;;;;;;;2.53;2.33;;;11.90;99.90;;;;;;6280768;22;20615;-77
2022/10/14 05:43:32;;;;;;;1.95;1.63;;;11.90;99.90;;;;;;6271106;22;20392;-78
2022/10/14 05:46:06;;;;;;;1.70;1.60;;;11.90;99.90;;;;;;6270662;22;20399;-78
2022/10/14 05:48:36;;;;;;;1.98;1.88;;;11.90;99.90;;;;;;6271857;22;20391;-78
2022/10/14 05:51:02;;;;;;;2.10;2.00;;;12.00;99.90;;;;;;6282060;22;20410;-78
2022/10/14 05:53:31;;;;;;;2.25;2.13;;;12.00;99.90;;;;;;6280474;22;20392;-78
2022/10/14 05:56:16;;;;;;;2.27;2.00;;;12.00;99.90;;;;;;6270581;22;20398;-78
2022/10/14 05:58:43;;;;;;;3.25;1.98;;;12.00;99.90;;;;;;6272304;22;20411;-79
2022/10/14 06:01:12;;;;;;;2.83;2.30;;;12.00;99.90;;;;;;6276993;22;20384;-79
2022/10/14 06:03:38;;;;;;;2.78;2.40;;;12.00;99.90;;;;;;6269593;22;20392;-79
2022/10/14 06:06:05;;;;;;;3.50;2.35;;;12.00;99.90;;;;;;6271755;22;20388;-78
2022/10/14 06:08:32;;;;;;;2.45;2.30;;;12.00;99.90;;;;;;6269654;22;20438;-79
2022/10/14 06:11:03;;;;;;;1.75;1.52;;;12.00;99.90;;;;;;6271236;22;20392;-78
2022/10/14 06:13:30;;;;;;;2.08;1.92;;;12.00;99.90;;;;;;6279252;22;20387;-78
2022/10/14 06:16:07;;;;;;;2.15;2.05;;;12.00;99.90;;;;;;6269943;22;20391;-78
2022/10/14 06:18:35;;;;;;;2.03;1.85;;;12.00;99.90;;;;;;6280224;22;20802;-78
2022/10/14 06:21:05;;;;;;;2.53;2.33;;;12.10;99.90;;;;;;6269598;22;20871;-78
2022/10/14 06:23:35;;;;;;;2.53;2.10;;;12.10;99.90;;;;;;6269347;22;20384;-78
2022/10/14 06:26:06;;;;;;;1.85;1.75;;;12.10;99.90;;;;;;6280441;22;20391;-78
2022/10/14 06:28:33;;;;;;;2.60;2.15;;;12.10;99.90;;;;;;6271501;22;20388;-78
2022/10/14 06:31:02;;;;;;;3.30;2.17;;;12.10;99.90;;;;;;6280115;22;20458;-79
2022/10/14 06:33:32;;;;;;;2.28;2.08;;;12.20;99.90;;;;;;6270378;22;20384;-78
2022/10/14 06:36:04;;;;;;;3.28;2.72;;;12.20;99.90;;;;;;6269907;22;20385;-78
2022/10/14 06:38:32;;;;;;;5.57;2.50;;;12.30;99.90;;;;;;6269961;22;20442;-78
2022/10/14 06:41:00;;;;;;;3.28;2.72;;;12.30;99.90;;;;;;6281465;22;20380;-78
2022/10/14 06:43:27;;;;;;;2.65;2.22;;;12.40;99.90;;;;;;6279307;22;20438;-79
2022/10/14 06:45:56;;;;;;;2.30;2.10;;;12.50;99.90;;;;;;6281018;22;20380;-78
2022/10/14 06:48:23;;;;;;;3.05;1.98;;;12.50;99.90;;;;;;6279423;22;20467;-78
2022/10/14 06:50:49;;;;;;;2.92;2.55;;;12.50;99.90;;;;;;6270879;22;20388;-78
2022/10/14 06:53:20;;;;;;;2.22;1.90;;;12.50;99.90;;;;;;6280374;22;20387;-79
2022/10/14 06:55:46;;;;;;;3.05;2.00;;;12.50;99.90;;;;;;6271042;22;20388;-78
2022/10/14 06:58:13;;;;;;;2.42;2.10;;;12.50;99.90;;;;;;6281215;22;20752;-79
2022/10/14 07:00:43;;;;;;;3.47;2.40;;;12.40;99.90;;;;;;6279197;22;20929;-78
2022/10/14 07:03:13;;;;;;;3.00;2.53;;;12.40;99.90;;;;;;6280519;22;20799;-78
2022/10/14 07:05:40;;;;;;;2.07;1.93;;;12.40;99.90;;;;;;6269665;22;20392;-79
2022/10/14 07:08:07;;;;;;;2.25;2.05;;;12.30;99.90;;;;;;6281371;22;20772;-77
2022/10/14 07:10:39;;;;;;;3.30;2.45;;;12.30;99.90;;;;;;6269090;22;20983;-78
2022/10/14 07:13:06;;;;;;;2.47;2.38;;;12.30;99.90;;;;;;6269222;22;20420;-78
2022/10/14 07:15:33;;;;;;;2.65;2.45;;;12.40;99.90;;;;;;6271089;22;20388;-78
2022/10/14 07:18:03;;;;;;;2.42;2.22;;;12.40;99.90;;;;;;6280658;22;20666;-79
2022/10/14 07:20:30;;;;;;;2.43;2.23;;;12.50;99.90;;;;;;6269469;22;20388;-79
2022/10/14 07:22:57;;;;;;;3.13;2.58;;;12.60;99.90;;;;;;6268908;22;20392;-79
2022/10/14 07:25:37;;;;;;;2.67;2.40;;;12.60;99.90;;;;;;6266493;22;20392;-79
2022/10/14 07:28:04;;;;;;;2.55;2.35;;;12.60;99.90;;;;;;6279129;22;20743;-78
2022/10/14 07:30:31;;;;;;;2.78;2.58;;;12.60;99.90;;;;;;6280938;22;20731;-78
2022/10/14 07:32:58;;;;;;;3.93;2.63;;;12.50;99.90;;;;;;6269069;22;20438;-79
2022/10/14 07:35:28;;;;;;;3.60;2.58;;;12.60;99.90;;;;;;6270586;22;20893;-79
2022/10/14 07:37:56;;;;;;;2.85;2.60;;;12.70;99.90;;;;;;6279799;22;20993;-78
2022/10/14 07:40:23;;;;;;;2.80;2.60;;;12.80;99.90;;;;;;6269265;22;20388;-78
2022/10/14 07:42:50;;;;;;;2.58;2.35;;;12.80;99.90;;;;;;6279195;22;20871;-78
2022/10/14 07:45:19;;;;;;;5.07;2.53;;;13.00;99.90;;;;;;6270734;22;20389;-78
2022/10/14 07:47:48;;;;;;;3.15;2.47;;;13.00;99.90;;;;;;6269382;22;20384;-78
2022/10/14 07:50:14;;;;;;;2.95;2.75;;;13.10;99.90;;;;;;6280715;22;20851;-78
2022/10/14 07:52:43;;;;;;;3.92;2.80;;;13.20;99.90;;;;;;6268092;22;21417;-78
2022/10/14 07:55:12;;;;;;;4.00;2.90;;;13.20;99.90;;;;;;6280689;22;20415;-78
2022/10/14 07:57:42;;;;;;;3.70;2.28;;;13.20;99.90;;;;;;6268543;22;20875;-79
2022/10/14 08:00:09;;;;;;;3.30;3.03;;;13.30;99.90;;;;;;6280859;22;20755;-79
2022/10/14 08:02:36;;;;;;;4.32;2.95;;;13.30;99.90;;;;;;6279494;22;20384;-79
2022/10/14 08:05:06;;;;;;;2.70;2.40;;;13.50;99.90;;;;;;6278656;22;20890;-79
2022/10/14 08:07:54;;;;;;;3.05;2.50;;;13.60;99.90;;;;;;6269385;22;20379;-78
2022/10/14 08:10:21;;;;;;;3.10;2.50;;;13.80;99.90;;;;;;6270056;22;20441;-79
2022/10/14 08:12:48;;;;;;;2.72;2.47;;;14.00;99.90;;;;;;6279258;22;20914;-79
2022/10/14 08:15:17;;;;;;;3.67;2.70;;;14.00;99.90;;;;;;6268658;22;20399;-79
2022/10/14 08:17:44;;;;;;;2.42;2.33;;;13.90;99.90;;;;;;6279975;22;20392;-79
2022/10/14 08:20:11;;;;;;;2.50;2.30;;;13.90;99.90;;;;;;6270738;22;20395;-79
2022/10/14 08:22:38;;;;;;;2.60;2.40;;;13.80;99.90;;;;;;6271714;22;20391;-79
2022/10/14 08:25:05;;;;;;;2.47;2.28;;;13.60;99.90;;;;;;6271618;22;20392;-79
2022/10/14 08:27:31;;;;;;;3.13;2.50;;;13.60;99.90;;;;;;6274351;22;20388;-79
2022/10/14 08:29:58;;;;;;;2.97;2.40;;;13.60;99.90;;;;;;6284347;22;20742;-78
2022/10/14 08:32:24;;;;;;;2.45;2.00;;;13.50;99.90;;;;;;6272426;22;20388;-79
2022/10/14 08:34:54;;;;;;;3.35;2.35;;;13.50;99.90;;;;;;6270954;22;20423;-79
2022/10/14 08:37:23;;;;;;;2.53;2.33;;;13.50;99.90;;;;;;6282573;22;20411;-79
2022/10/14 08:39:53;;;;;;;2.78;2.10;;;13.50;99.90;;;;;;6282053;22;20423;-78
2022/10/14 08:42:23;;;;;;;2.35;2.15;;;13.50;99.90;;;;;;6282106;22;20445;-83
2022/10/14 08:45:01;;;;;;;2.22;2.10;;;13.60;99.90;;;;;;6281416;22;20399;-77
2022/10/14 08:47:36;;;;;;;2.78;2.17;;;13.70;99.90;;;;;;6273615;22;20389;-78
2022/10/14 08:50:16;;;;;;;3.38;2.70;;;13.70;99.90;;;;;;6283592;22;20427;-78
2022/10/14 08:53:05;;;;;;;3.85;2.28;;;13.70;99.90;;;;;;6273678;22;20476;-78
2022/10/14 08:55:39;;;;;;;2.50;2.30;;;13.70;99.90;;;;;;6271589;22;20400;-78
2022/10/14 08:58:21;;;;;;;2.28;2.08;;;13.80;99.90;;;;;;6274493;22;20395;-78
2022/10/14 09:00:51;;;;;;;1.70;1.60;;;13.70;99.90;;;;;;6282870;22;20403;-78
2022/10/14 09:03:25;;;;;;;2.88;1.98;;;13.80;99.90;;;;;;6271230;22;20400;-78
2022/10/14 09:09:48;;;;;;;2.28;2.08;;;13.90;99.90;;;;;;6041545;23;20864;-77
2022/10/14 09:12:19;;;;;;;4.72;2.33;;;14.10;99.90;;;;;;6017899;23;20393;-78
2022/10/14 09:14:59;;;;;;;2.28;2.08;;;14.30;99.90;;;;;;6040886;23;20441;-78
2022/10/14 09:17:38;;;;;;;3.00;2.47;;;14.50;99.90;;;;;;6017997;23;20401;-78
2022/10/14 09:20:16;;;;;;;2.65;1.73;;;14.60;99.90;;;;;;6041496;23;21043;-78
2022/10/14 09:23:10;;;;;;;2.57;2.47;;;14.80;99.90;;;;;;6031701;23;20397;-78
2022/10/14 09:25:39;;;;;;;1.90;1.80;;;14.90;99.90;;;;;;6006409;23;20831;-77
2022/10/14 09:28:07;;;;;;;2.63;2.15;;;14.80;99.90;;;;;;6041014;23;20401;-78
2022/10/14 09:30:39;;;;;;;3.47;2.10;;;14.90;99.90;;;;;;6041163;23;20473;-78
2022/10/14 09:33:12;;;;;;;2.30;1.98;;;15.10;99.90;;;;;;6016809;23;20819;-78
2022/10/14 09:35:42;;;;;;;1.88;1.77;;;15.30;99.90;;;;;;6017480;23;20398;-78
2022/10/14 09:38:14;;;;;;;3.05;1.95;;;15.60;99.90;;;;;;6017440;23;20413;-79
2022/10/14 09:40:44;;;;;;;2.30;2.10;;;15.60;99.90;;;;;;6041443;23;20402;-79
2022/10/14 09:43:19;;;;;;;2.20;2.00;;;15.70;99.90;;;;;;6007461;23;20430;-79
2022/10/14 09:45:59;;;;;;;2.07;1.90;;;15.80;99.90;;;;;;6071568;23;20761;-79
2022/10/14 09:48:31;;;;;;;2.00;1.85;;;15.80;99.90;;;;;;6239868;23;20775;-79
2022/10/14 09:51:01;;;;;;;1.92;1.80;;;16.00;99.90;;;;;;6240861;22;20447;-78
2022/10/14 09:53:36;;;;;;;3.22;1.80;;;16.20;99.90;;;;;;6249325;23;20754;-80
2022/10/14 09:56:06;;;;;;;2.03;1.83;;;16.20;99.90;;;;;;6251652;22;20390;-79
2022/10/14 09:58:46;;;;;;;1.65;1.55;;;16.40;99.90;;;;;;6251376;22;20436;-79
2022/10/14 10:01:18;;;;;;;1.98;1.88;;;16.40;99.90;;;;;;6251174;22;20394;-79
2022/10/14 10:03:47;;;;;;;2.00;1.80;;;16.60;99.90;;;;;;6240244;22;20386;-79
2022/10/14 10:06:25;;;;;;;2.13;1.97;;;16.80;99.90;;;;;;6272642;23;20463;-78
2022/10/14 10:08:52;;;;;;;2.00;1.90;;;16.70;99.90;;;;;;6241033;22;20399;-79
2022/10/14 10:11:32;;;;;;;2.13;1.92;;;16.60;99.90;;;;;;6250018;23;20377;-79
2022/10/14 10:14:21;;;;;;;2.13;2.03;;;16.40;99.90;;;;;;6238875;23;20394;-79
2022/10/14 10:16:50;;;;;;;1.90;1.80;;;16.00;99.90;;;;;;6249492;23;20865;-79
2022/10/14 10:19:55;;;;;;;1.58;1.48;;;15.80;99.90;;;;;;6249520;23;20389;-79
2022/10/14 10:22:30;;;;;;;1.80;1.48;;;15.70;99.90;;;;;;6117371;23;20404;-79
2022/10/14 10:25:00;;;;;;;1.73;1.57;;;15.70;99.90;;;;;;6116960;23;20400;-79
2022/10/14 10:27:35;;;;;;;1.42;1.33;;;15.60;99.90;;;;;;6117705;23;20397;-80
2022/10/14 10:30:14;;;;;;;1.88;1.67;;;15.50;99.90;;;;;;6117908;23;20396;-79
2022/10/14 10:32:49;;;;;;;1.60;1.50;;;15.60;99.90;;;;;;6127356;23;20412;-79
2022/10/14 10:35:43;;;;;;;1.60;1.50;;;15.70;99.90;;;;;;6127057;23;20930;-79
2022/10/14 10:38:20;;;;;;;1.50;1.33;;;15.70;99.90;;;;;;6127573;23;20396;-79
2022/10/14 10:41:03;;;;;;;1.57;1.47;;;15.60;99.90;;;;;;6093495;23;20397;-79
2022/10/14 10:43:58;;;;;;;1.43;1.30;;;15.40;99.90;;;;;;6117185;23;20784;-80
2022/10/14 10:46:50;;;;;;;1.50;1.40;;;15.30;99.90;;;;;;6126699;23;20400;-80
2022/10/14 10:49:50;;;;;;;1.50;1.40;;;15.10;99.90;;;;;;6127870;23;20487;-80
2022/10/14 10:52:40;;;;;;;1.48;1.38;;;15.20;99.90;;;;;;6127556;23;20431;-79
2022/10/14 10:55:17;;;;;;;2.10;1.50;;;15.20;99.90;;;;;;6126866;23;20432;-81
2022/10/14 10:58:00;;;;;;;2.22;1.77;;;15.20;99.90;;;;;;6121262;23;20621;-80
2022/10/14 11:00:45;;;;;;;2.50;1.63;;;15.20;99.90;;;;;;6250432;22;21041;-80
2022/10/14 11:03:18;;;;;;;1.40;1.30;;;15.30;99.90;;;;;;6248835;23;20761;-80
2022/10/14 11:06:06;;;;;;;1.20;1.20;;;15.40;99.90;;;;;;6240351;23;20401;-79
2022/10/14 11:12:16;;;;;;;1.73;1.63;;;15.30;99.90;;;;;;6240621;23;20428;-80
2022/10/14 11:14:45;;;;;;;1.00;1.00;;;15.20;99.90;;;;;;6233902;23;20384;-79
2022/10/14 11:17:30;;;;;;;1.50;1.40;;;15.20;99.90;;;;;;6248694;23;20447;-80
2022/10/14 11:20:07;;;;;;;1.75;1.50;;;15.30;99.90;;;;;;6239057;23;20388;-79
2022/10/14 11:22:49;;;;;;;1.40;1.35;;;15.40;99.90;;;;;;6239593;23;20386;-79
2022/10/14 11:25:24;;;;;;;1.50;1.40;;;15.40;99.90;;;;;;6248253;23;20482;-80
2022/10/14 11:28:15;;;;;;;1.60;1.50;;;15.30;99.90;;;;;;6248797;23;20388;-79
2022/10/14 11:30:52;;;;;;;2.13;1.90;;;15.20;99.90;;;;;;6238959;23;20390;-79
2022/10/14 11:33:41;;;;;;;1.60;1.50;;;15.20;99.90;;;;;;6239874;22;20404;-79
2022/10/14 11:36:48;;;;;;;3.55;1.65;;;15.20;99.90;;;;;;6240108;22;20443;-78
2022/10/14 11:39:39;;;;;;;2.05;1.42;;;15.30;99.90;;;;;;6240562;22;20786;-77
2022/10/14 11:42:41;;;;;;;1.33;1.33;;;15.10;99.90;;;;;;6248730;23;20731;-78
2022/10/14 11:45:40;;;;;;;1.00;1.00;;;15.00;99.90;;;;;;6239363;22;20440;-77
2022/10/14 11:48:18;;;;;;;1.50;1.40;;;14.90;99.90;;;;;;6238903;23;20397;-77
2022/10/14 11:50:49;;;;;;;3.47;1.20;;;14.80;99.90;;;;;;6248421;23;20440;-77
2022/10/14 11:53:19;;;;;;;1.85;1.35;;;14.60;99.90;;;;;;6238514;23;20476;-78
2022/10/14 11:55:52;;;;;;;1.60;1.05;;;14.50;99.90;;;;;;6239258;23;20389;-78
2022/10/14 11:58:24;;;;;;;1.27;1.20;;;14.40;99.90;;;;;;6242205;22;20394;-77
2022/10/14 12:01:08;;;;;;;1.80;1.10;;;14.30;99.90;;;;;;6252474;22;20451;-78
2022/10/14 12:04:01;;;;;;;1.57;1.20;;;14.30;99.90;;;;;;6249749;23;20392;-78
2022/10/14 12:06:36;;;;;;;1.45;1.35;;;14.20;99.90;;;;;;6240611;23;20397;-78
2022/10/14 12:09:28;;;;;;;1.80;1.20;;;14.30;99.90;;;;;;6242120;23;20395;-77
2022/10/14 12:12:04;;;;;;;1.67;1.58;;;14.20;99.90;;;;;;6180015;22;20449;-78
2022/10/14 12:14:42;;;;;;;1.40;1.30;;;14.10;99.90;;;;;;6241276;22;20399;-78
2022/10/14 12:17:22;;;;;;;1.70;1.20;;;14.10;99.90;;;;;;6251849;22;20615;-78
2022/10/14 12:19:50;;;;;;;1.23;1.00;;;14.00;99.90;;;;;;6250475;23;20466;-79
2022/10/14 12:22:27;;;;;;;1.02;1.02;;;13.90;99.90;;;;;;6251704;23;20382;-78
2022/10/14 12:25:06;;;;;;;1.17;1.17;;;13.90;99.90;;;;;;6239860;23;20444;-78
2022/10/14 12:27:40;;;;;;;0.88;0.88;;;13.90;99.90;;;;;;6239669;23;20396;-78
2022/10/14 12:30:41;;;;;;;0.70;0.70;;;13.80;99.90;;;;;;6240329;23;20397;-78
2022/10/14 12:33:12;;;;;;;0.90;0.90;;;13.90;99.90;;;;;;6221031;23;20397;-78
2022/10/14 12:35:46;;;;;;;1.15;1.08;;;13.90;99.90;;;;;;6216891;23;20674;-79
2022/10/14 12:38:13;;;;;;;1.08;0.80;;;13.90;99.90;;;;;;6250254;23;20390;-79
2022/10/14 12:40:40;;;;;;;2.20;1.10;;;13.90;99.90;;;;;;6240708;23;20484;-78
2022/10/14 12:43:12;;;;;;;1.25;1.20;;;14.00;99.90;;;;;;6251899;23;20385;-78
2022/10/14 12:45:57;;;;;;;0.95;0.88;;;14.00;99.90;;;;;;6239320;23;20398;-79
2022/10/14 12:48:26;;;;;;;1.30;1.20;;;14.00;99.90;;;;;;6240422;23;20389;-79
2022/10/14 12:51:17;;;;;;;1.20;1.10;;;14.00;99.90;;;;;;6250467;23;20398;-78
2022/10/14 12:54:13;;;;;;;1.10;0.93;;;14.10;99.90;;;;;;6251746;22;20382;-79
2022/10/14 12:56:55;;;;;;;0.68;0.68;;;14.00;99.90;;;;;;6231089;22;20397;-80
2022/10/14 12:59:52;;;;;;;1.93;1.10;;;14.10;99.90;;;;;;6249987;23;20670;-78
2022/10/14 13:02:42;;;;;;;1.17;1.17;;;14.10;99.90;;;;;;6237456;22;20428;-79
2022/10/14 13:05:30;;;;;;;1.17;0.95;;;14.10;99.90;;;;;;6239390;23;20390;-79
2022/10/14 13:08:10;;;;;;;2.05;1.38;;;14.00;99.90;;;;;;6239879;22;20394;-79
2022/10/14 13:10:37;;;;;;;1.52;1.08;;;14.00;99.90;;;;;;6251938;23;20439;-79
2022/10/14 13:13:57;;;;;;;1.42;1.33;;;14.00;99.90;;;;;;6240777;23;20716;-79
2022/10/14 13:16:24;;;;;;;2.55;1.40;;;14.00;99.90;;;;;;6250261;23;20389;-78
2022/10/14 13:18:54;;;;;;;1.10;1.00;;;14.00;99.90;;;;;;6238948;23;20386;-79
2022/10/14 13:21:31;;;;;;;0.93;0.93;;;14.00;99.90;;;;;;6240002;23;20905;-80
2022/10/14 13:24:20;;;;;;;0.90;0.90;;;14.00;99.90;;;;;;6249381;23;20396;-79
2022/10/14 13:26:53;;;;;;;0.73;0.73;;;14.00;99.90;;;;;;6249683;23;20392;-80